This is the latest recevied weather packets stored in our database for station/object XQ6AK-15. If no packets are shown the sender has not sent any weather packets the latest 10 day(s).
| Time | Temp. | Humidity | Pressure | Rain* | Wind** | Luminosity | Snow |
|---|---|---|---|---|---|---|---|
| 1777747675 | 14.44° C | 56% | 1016.3 hPa | 0 mm | - | 235 W/m² | - |
| 1777747371 | 13.89° C | 56% | 1016.3 hPa | 0 mm | - | 340 W/m² | - |
| 1777747068 | 13.89° C | 59% | 1016.4 hPa | 0 mm | - | 338 W/m² | - |
| 1777746764 | 13.33° C | 62% | 1016.7 hPa | 0 mm | - | 242 W/m² | - |
| 1777746459 | 13.33° C | 61% | 1016.5 hPa | 0 mm | - | 303 W/m² | - |
| 1777746155 | 13.33° C | 61% | 1016.6 hPa | 0 mm | - | 306 W/m² | - |
| 1777745852 | 13.33° C | 63% | 1016.7 hPa | 0 mm | - | 266 W/m² | - |
| 1777745551 | 14.44° C | 62% | 1016.8 hPa | 0 mm | - | 308 W/m² | - |
| 1777745248 | 14.44° C | 57% | 1016.8 hPa | 0 mm | - | 311 W/m² | - |
| 1777744946 | 15.56° C | 55% | 1016.9 hPa | 0 mm | - | 356 W/m² | - |
| 1777744645 | 15° C | 59% | 1017.2 hPa | 0 mm | - | 363 W/m² | - |
| 1777744340 | 13.89° C | 62% | 1017.2 hPa | 0 mm | - | 364 W/m² | - |
| 1777744038 | 14.44° C | 60% | 1017.4 hPa | 0 mm | - | 358 W/m² | - |
| 1777743735 | 15.56° C | 58% | 1017.5 hPa | 0 mm | - | 370 W/m² | - |
| 1777743431 | 14.44° C | 57% | 1017.7 hPa | 0 mm | - | 390 W/m² | - |
| 1777743129 | 14.44° C | 58% | 1017.7 hPa | 0 mm | - | 414 W/m² | - |
| 1777742827 | 13.89° C | 60% | 1017.7 hPa | 0 mm | - | 434 W/m² | - |
| 1777742522 | 14.44° C | 61% | 1017.6 hPa | 0 mm | - | 443 W/m² | - |
| 1777742218 | 12.78° C | 66% | 1017.9 hPa | 0 mm | - | 436 W/m² | - |
| 1777741915 | 13.33° C | 66% | 1018.1 hPa | 0 mm | - | 420 W/m² | - |
| 1777741613 | 12.78° C | 68% | 1017.9 hPa | 0 mm | - | 392 W/m² | - |
| 1777741310 | 13.33° C | 69% | 1018.4 hPa | 0 mm | - | 381 W/m² | - |
| 1777741006 | 11.67° C | 74% | 1018.3 hPa | 0 mm | - | 445 W/m² | - |
| 1777740703 | 11.11° C | 70% | 1018.6 hPa | 0 mm | - | 372 W/m² | - |
| 1777740399 | 11.67° C | 71% | 1018.8 hPa | 0 mm | - | 306 W/m² | - |
* Rain latest hour (hover to see other rain measurements)
** Current wind speed in m/s (hover to see current wind gust speed)